sensor_id;sensor_type;location;lat;lon;timestamp;pressure;altitude;pressure_sealevel;temperature;humidity
54882;BME280;40775;51.448;4.742;2023-03-21T00:01:52;101637.38;;;10.90;100.00
54882;BME280;40775;51.448;4.742;2023-03-21T00:04:24;101634.66;;;10.87;100.00
54882;BME280;40775;51.448;4.742;2023-03-21T00:06:57;101628.53;;;10.88;100.00
54882;BME280;40775;51.448;4.742;2023-03-21T00:09:24;101624.03;;;10.84;100.00
54882;BME280;40775;51.448;4.742;2023-03-21T00:11:51;101627.66;;;10.88;100.00
54882;BME280;40775;51.448;4.742;2023-03-21T00:14:18;101622.41;;;10.88;100.00
54882;BME280;40775;51.448;4.742;2023-03-21T00:16:47;101624.88;;;10.83;100.00
54882;BME280;40775;51.448;4.742;2023-03-21T00:19:19;101621.38;;;10.82;100.00
54882;BME280;40775;51.448;4.742;2023-03-21T00:21:47;101625.78;;;10.83;100.00
54882;BME280;40775;51.448;4.742;2023-03-21T00:24:35;101611.81;;;10.84;100.00
54882;BME280;40775;51.448;4.742;2023-03-21T00:27:03;101611.00;;;10.87;100.00
54882;BME280;40775;51.448;4.742;2023-03-21T00:29:51;101613.50;;;10.82;100.00
54882;BME280;40775;51.448;4.742;2023-03-21T00:32:19;101610.91;;;10.84;100.00
54882;BME280;40775;51.448;4.742;2023-03-21T00:34:47;101602.94;;;10.81;100.00
54882;BME280;40775;51.448;4.742;2023-03-21T00:37:35;101602.97;;;10.82;100.00
54882;BME280;40775;51.448;4.742;2023-03-21T00:40:03;101605.66;;;10.84;100.00
54882;BME280;40775;51.448;4.742;2023-03-21T00:42:51;101600.41;;;10.84;100.00
54882;BME280;40775;51.448;4.742;2023-03-21T00:45:18;101595.19;;;10.86;100.00
54882;BME280;40775;51.448;4.742;2023-03-21T00:47:47;101590.88;;;10.88;100.00
54882;BME280;40775;51.448;4.742;2023-03-21T00:50:15;101587.28;;;10.84;100.00
54882;BME280;40775;51.448;4.742;2023-03-21T00:52:42;101582.91;;;10.84;100.00
54882;BME280;40775;51.448;4.742;2023-03-21T00:55:14;101580.28;;;10.84;100.00
54882;BME280;40775;51.448;4.742;2023-03-21T00:57:42;101581.94;;;10.81;100.00
54882;BME280;40775;51.448;4.742;2023-03-21T01:00:16;101579.25;;;10.79;100.00
54882;BME280;40775;51.448;4.742;2023-03-21T01:02:44;101582.81;;;10.81;100.00
54882;BME280;40775;51.448;4.742;2023-03-21T01:05:43;101572.22;;;10.78;100.00
54882;BME280;40775;51.448;4.742;2023-03-21T01:08:35;101574.84;;;10.78;100.00
54882;BME280;40775;51.448;4.742;2023-03-21T01:11:20;101561.63;;;10.75;100.00
54882;BME280;40775;51.448;4.742;2023-03-21T01:13:48;101558.16;;;10.76;100.00
54882;BME280;40775;51.448;4.742;2023-03-21T01:16:35;101555.53;;;10.76;100.00
54882;BME280;40775;51.448;4.742;2023-03-21T01:19:05;101551.97;;;10.74;100.00
54882;BME280;40775;51.448;4.742;2023-03-21T01:21:44;101550.22;;;10.75;100.00
54882;BME280;40775;51.448;4.742;2023-03-21T01:24:11;101555.44;;;10.73;100.00
54882;BME280;40775;51.448;4.742;2023-03-21T01:26:38;101548.44;;;10.74;100.00
54882;BME280;40775;51.448;4.742;2023-03-21T01:29:05;101544.03;;;10.73;100.00
54882;BME280;40775;51.448;4.742;2023-03-21T01:31:32;101549.25;;;10.71;100.00
54882;BME280;40775;51.448;4.742;2023-03-21T01:33:59;101544.78;;;10.69;100.00
54882;BME280;40775;51.448;4.742;2023-03-21T01:36:26;101533.44;;;10.70;100.00
54882;BME280;40775;51.448;4.742;2023-03-21T01:38:54;101538.56;;;10.67;100.00
54882;BME280;40775;51.448;4.742;2023-03-21T01:41:29;101537.72;;;10.68;100.00
54882;BME280;40775;51.448;4.742;2023-03-21T01:44:17;101535.09;;;10.68;100.00
54882;BME280;40775;51.448;4.742;2023-03-21T01:46:50;101523.53;;;10.61;100.00
54882;BME280;40775;51.448;4.742;2023-03-21T01:49:39;101520.94;;;10.63;100.00
54882;BME280;40775;51.448;4.742;2023-03-21T01:52:11;101521.78;;;10.62;100.00
54882;BME280;40775;51.448;4.742;2023-03-21T01:54:56;101520.00;;;10.61;100.00
54882;BME280;40775;51.448;4.742;2023-03-21T01:57:31;101526.91;;;10.57;100.00
54882;BME280;40775;51.448;4.742;2023-03-21T02:00:13;101519.88;;;10.56;100.00
54882;BME280;40775;51.448;4.742;2023-03-21T02:02:45;101512.84;;;10.55;100.00
54882;BME280;40775;51.448;4.742;2023-03-21T02:05:29;101517.16;;;10.53;100.00
54882;BME280;40775;51.448;4.742;2023-03-21T02:07:59;101517.16;;;10.53;100.00
54882;BME280;40775;51.448;4.742;2023-03-21T02:10:27;101510.16;;;10.53;100.00
54882;BME280;40775;51.448;4.742;2023-03-21T02:12:58;101510.97;;;10.51;100.00
54882;BME280;40775;51.448;4.742;2023-03-21T02:15:39;101498.66;;;10.48;100.00
54882;BME280;40775;51.448;4.742;2023-03-21T02:27:20;101484.63;;;10.48;100.00
54882;BME280;40775;51.448;4.742;2023-03-21T02:36:31;101474.00;;;10.43;100.00
54882;BME280;40775;51.448;4.742;2023-03-21T02:45:35;101454.72;;;10.43;100.00
54882;BME280;40775;51.448;4.742;2023-03-21T02:48:10;101455.63;;;10.43;100.00
54882;BME280;40775;51.448;4.742;2023-03-21T02:50:57;101455.56;;;10.42;100.00
54882;BME280;40775;51.448;4.742;2023-03-21T02:53:32;101458.06;;;10.39;100.00
54882;BME280;40775;51.448;4.742;2023-03-21T02:56:00;101448.53;;;10.41;100.00
54882;BME280;40775;51.448;4.742;2023-03-21T02:58:29;101459.97;;;10.43;100.00
54882;BME280;40775;51.448;4.742;2023-03-21T03:00:57;101459.97;;;10.43;100.00
54882;BME280;40775;51.448;4.742;2023-03-21T03:03:24;101452.09;;;10.43;100.00
54882;BME280;40775;51.448;4.742;2023-03-21T03:06:03;101455.63;;;10.43;100.00
54882;BME280;40775;51.448;4.742;2023-03-21T03:09:00;101454.72;;;10.43;100.00
54882;BME280;40775;51.448;4.742;2023-03-21T03:11:38;101450.38;;;10.43;100.00
54882;BME280;40775;51.448;4.742;2023-03-21T03:17:48;101451.09;;;10.39;100.00
54882;BME280;40775;51.448;4.742;2023-03-21T03:29:04;101441.56;;;10.41;100.00
54882;BME280;40775;51.448;4.742;2023-03-21T03:31:46;101440.66;;;10.41;100.00
54882;BME280;40775;51.448;4.742;2023-03-21T03:34:19;101434.56;;;10.42;100.00
54882;BME280;40775;51.448;4.742;2023-03-21T03:36:53;101429.31;;;10.42;100.00
54882;BME280;40775;51.448;4.742;2023-03-21T03:39:29;101424.06;;;10.42;100.00
54882;BME280;40775;51.448;4.742;2023-03-21T03:42:28;101428.34;;;10.40;100.00
54882;BME280;40775;51.448;4.742;2023-03-21T03:44:57;101426.63;;;10.40;100.00
54882;BME280;40775;51.448;4.742;2023-03-21T03:47:40;101423.19;;;10.41;100.00
54882;BME280;40775;51.448;4.742;2023-03-21T03:50:49;101413.47;;;10.39;100.00
54882;BME280;40775;51.448;4.742;2023-03-21T03:53:45;101407.34;;;10.40;100.00
54882;BME280;40775;51.448;4.742;2023-03-21T03:56:17;101408.22;;;10.39;100.00
54882;BME280;40775;51.448;4.742;2023-03-21T03:58:44;101405.56;;;10.39;100.00
54882;BME280;40775;51.448;4.742;2023-03-21T04:01:12;101410.88;;;10.40;100.00
54882;BME280;40775;51.448;4.742;2023-03-21T04:03:41;101414.34;;;10.39;100.00
54882;BME280;40775;51.448;4.742;2023-03-21T04:06:18;101416.13;;;10.40;100.00
54882;BME280;40775;51.448;4.742;2023-03-21T04:08:45;101415.34;;;10.43;100.00
54882;BME280;40775;51.448;4.742;2023-03-21T04:11:15;101414.47;;;10.42;100.00
54882;BME280;40775;51.448;4.742;2023-03-21T04:13:42;101404.72;;;10.40;100.00
54882;BME280;40775;51.448;4.742;2023-03-21T04:16:10;101400.44;;;10.42;100.00
54882;BME280;40775;51.448;4.742;2023-03-21T04:18:39;101396.19;;;10.45;100.00
54882;BME280;40775;51.448;4.742;2023-03-21T04:21:12;101398.84;;;10.47;100.00
54882;BME280;40775;51.448;4.742;2023-03-21T04:23:40;101395.28;;;10.45;100.00
54882;BME280;40775;51.448;4.742;2023-03-21T04:26:07;101398.84;;;10.47;100.00
54882;BME280;40775;51.448;4.742;2023-03-21T04:28:35;101385.81;;;10.50;100.00
54882;BME280;40775;51.448;4.742;2023-03-21T04:31:07;101393.59;;;10.47;100.00
54882;BME280;40775;51.448;4.742;2023-03-21T04:33:51;101387.50;;;10.48;100.00
54882;BME280;40775;51.448;4.742;2023-03-21T04:36:18;101381.44;;;10.50;100.00
54882;BME280;40775;51.448;4.742;2023-03-21T04:38:59;101384.00;;;10.47;100.00
54882;BME280;40775;51.448;4.742;2023-03-21T04:41:29;101387.50;;;10.48;100.00
54882;BME280;40775;51.448;4.742;2023-03-21T04:43:56;101375.25;;;10.48;100.00
54882;BME280;40775;51.448;4.742;2023-03-21T04:46:24;101370.91;;;10.49;100.00
54882;BME280;40775;51.448;4.742;2023-03-21T04:48:51;101369.09;;;10.46;100.00
54882;BME280;40775;51.448;4.742;2023-03-21T04:51:18;101363.13;;;10.52;100.00
54882;BME280;40775;51.448;4.742;2023-03-21T04:53:45;101369.22;;;10.51;100.00
54882;BME280;40775;51.448;4.742;2023-03-21T04:56:15;101359.66;;;10.53;100.00
54882;BME280;40775;51.448;4.742;2023-03-21T04:58:42;101365.75;;;10.52;100.00
54882;BME280;40775;51.448;4.742;2023-03-21T05:01:09;101364.91;;;10.53;100.00
54882;BME280;40775;51.448;4.742;2023-03-21T05:03:40;101353.50;;;10.52;100.00
54882;BME280;40775;51.448;4.742;2023-03-21T05:06:08;101355.31;;;10.55;100.00
54882;BME280;40775;51.448;4.742;2023-03-21T05:08:36;101351.88;;;10.58;100.00
54882;BME280;40775;51.448;4.742;2023-03-21T05:11:04;101345.75;;;10.57;100.00
54882;BME280;40775;51.448;4.742;2023-03-21T05:13:31;101348.41;;;10.59;100.00
54882;BME280;40775;51.448;4.742;2023-03-21T05:15:58;101352.00;;;10.62;100.00
54882;BME280;40775;51.448;4.742;2023-03-21T05:18:25;101352.22;;;10.68;100.00
54882;BME280;40775;51.448;4.742;2023-03-21T05:20:53;101348.75;;;10.69;100.00
54882;BME280;40775;51.448;4.742;2023-03-21T05:23:21;101348.59;;;10.65;100.00
54882;BME280;40775;51.448;4.742;2023-03-21T05:25:49;101345.16;;;10.67;100.00
54882;BME280;40775;51.448;4.742;2023-03-21T05:28:26;101356.50;;;10.66;100.00
54882;BME280;40775;51.448;4.742;2023-03-21T05:31:00;101351.28;;;10.68;100.00
54882;BME280;40775;51.448;4.742;2023-03-21T05:33:30;101360.09;;;10.68;100.00
54882;BME280;40775;51.448;4.742;2023-03-21T05:36:04;101347.69;;;10.64;100.00
54882;BME280;40775;51.448;4.742;2023-03-21T05:38:31;101348.53;;;10.63;100.00
54882;BME280;40775;51.448;4.742;2023-03-21T05:41:08;101362.53;;;10.62;100.00
54882;BME280;40775;51.448;4.742;2023-03-21T05:43:35;101347.69;;;10.64;100.00
54882;BME280;40775;51.448;4.742;2023-03-21T05:46:02;101344.19;;;10.64;100.00
54882;BME280;40775;51.448;4.742;2023-03-21T05:48:30;101353.88;;;10.66;100.00
54882;BME280;40775;51.448;4.742;2023-03-21T05:51:01;101356.38;;;10.62;100.00
54882;BME280;40775;51.448;4.742;2023-03-21T05:53:28;101348.53;;;10.63;100.00
54882;BME280;40775;51.448;4.742;2023-03-21T05:55:56;101353.00;;;10.66;100.00
54882;BME280;40775;51.448;4.742;2023-03-21T05:58:23;101352.00;;;10.62;100.00
54882;BME280;40775;51.448;4.742;2023-03-21T06:00:50;101338.94;;;10.64;100.00
54882;BME280;40775;51.448;4.742;2023-03-21T06:03:17;101348.53;;;10.63;100.00
54882;BME280;40775;51.448;4.742;2023-03-21T06:05:44;101343.28;;;10.63;100.00
54882;BME280;40775;51.448;4.742;2023-03-21T06:08:11;101345.00;;;10.61;100.00
54882;BME280;40775;51.448;4.742;2023-03-21T06:10:38;101348.53;;;10.63;100.00
54882;BME280;40775;51.448;4.742;2023-03-21T06:13:06;101357.25;;;10.62;100.00
54882;BME280;40775;51.448;4.742;2023-03-21T06:15:33;101362.59;;;10.65;100.00
54882;BME280;40775;51.448;4.742;2023-03-21T06:18:00;101368.66;;;10.63;100.00
54882;BME280;40775;51.448;4.742;2023-03-21T06:20:27;101371.31;;;10.64;100.00
54882;BME280;40775;51.448;4.742;2023-03-21T06:22:54;101382.69;;;10.63;100.00
54882;BME280;40775;51.448;4.742;2023-03-21T06:25:21;101385.31;;;10.63;100.00
54882;BME280;40775;51.448;4.742;2023-03-21T06:27:48;101384.41;;;10.63;100.00
54882;BME280;40775;51.448;4.742;2023-03-21T06:30:16;101390.56;;;10.63;100.00
54882;BME280;40775;51.448;4.742;2023-03-21T06:32:43;101380.06;;;10.63;100.00
54882;BME280;40775;51.448;4.742;2023-03-21T06:35:10;101390.56;;;10.63;100.00
54882;BME280;40775;51.448;4.742;2023-03-21T06:37:38;101388.06;;;10.68;100.00
54882;BME280;40775;51.448;4.742;2023-03-21T06:40:05;101389.78;;;10.67;100.00
54882;BME280;40775;51.448;4.742;2023-03-21T06:42:33;101385.38;;;10.66;100.00
54882;BME280;40775;51.448;4.742;2023-03-21T06:45:00;101385.31;;;10.63;100.00
54882;BME280;40775;51.448;4.742;2023-03-21T06:47:30;101391.59;;;12.41;100.00
54882;BME280;40775;51.448;4.742;2023-03-21T06:49:57;101372.19;;;13.23;100.00
54882;BME280;40775;51.448;4.742;2023-03-21T06:52:24;101351.03;;;13.73;100.00
54882;BME280;40775;51.448;4.742;2023-03-21T06:54:51;101348.94;;;14.10;100.00
54882;BME280;40775;51.448;4.742;2023-03-21T06:57:18;101341.31;;;14.33;100.00
54882;BME280;40775;51.448;4.742;2023-03-21T06:59:47;101324.81;;;14.49;100.00
54882;BME280;40775;51.448;4.742;2023-03-21T07:02:14;101331.13;;;14.60;100.00
54882;BME280;40775;51.448;4.742;2023-03-21T07:04:41;101324.16;;;14.68;100.00
54882;BME280;40775;51.448;4.742;2023-03-21T07:07:09;101324.22;;;14.74;100.00
54882;BME280;40775;51.448;4.742;2023-03-21T07:09:36;101324.31;;;14.80;100.00
54882;BME280;40775;51.448;4.742;2023-03-21T07:12:03;101328.75;;;14.83;100.00
54882;BME280;40775;51.448;4.742;2023-03-21T07:14:30;101334.09;;;14.88;100.00
54882;BME280;40775;51.448;4.742;2023-03-21T07:16:57;101319.97;;;14.87;100.00
54882;BME280;40775;51.448;4.742;2023-03-21T07:19:24;101316.50;;;14.91;100.00
54882;BME280;40775;51.448;4.742;2023-03-21T07:21:52;101321.78;;;14.93;100.00
54882;BME280;40775;51.448;4.742;2023-03-21T07:24:19;101314.72;;;14.92;100.00
54882;BME280;40775;51.448;4.742;2023-03-21T07:26:46;101315.66;;;14.95;100.00
54882;BME280;40775;51.448;4.742;2023-03-21T07:29:13;101316.53;;;14.97;100.00
54882;BME280;40775;51.448;4.742;2023-03-21T07:31:41;101308.63;;;15.00;100.00
54882;BME280;40775;51.448;4.742;2023-03-21T07:34:08;101313.97;;;15.05;100.00
54882;BME280;40775;51.448;4.742;2023-03-21T07:36:35;101309.56;;;15.05;100.00
54882;BME280;40775;51.448;4.742;2023-03-21T07:39:03;101296.34;;;15.05;100.00
54882;BME280;40775;51.448;4.742;2023-03-21T07:41:30;101301.69;;;15.08;100.00
54882;BME280;40775;51.448;4.742;2023-03-21T07:43:57;101292.91;;;15.11;100.00
54882;BME280;40775;51.448;4.742;2023-03-21T07:46:24;101291.16;;;15.13;100.00
54882;BME280;40775;51.448;4.742;2023-03-21T07:48:52;101287.63;;;15.14;100.00
54882;BME280;40775;51.448;4.742;2023-03-21T07:51:19;101285.88;;;15.16;100.00
54882;BME280;40775;51.448;4.742;2023-03-21T07:53:46;101283.22;;;15.14;100.00
54882;BME280;40775;51.448;4.742;2023-03-21T07:56:14;101279.72;;;15.17;100.00
54882;BME280;40775;51.448;4.742;2023-03-21T07:58:41;101275.31;;;15.18;100.00
54882;BME280;40775;51.448;4.742;2023-03-21T08:01:08;101273.56;;;15.18;100.00
54882;BME280;40775;51.448;4.742;2023-03-21T08:03:35;101263.84;;;15.19;100.00
54882;BME280;40775;51.448;4.742;2023-03-21T08:06:04;101263.84;;;15.19;100.00
54882;BME280;40775;51.448;4.742;2023-03-21T08:08:31;101268.28;;;15.21;100.00
54882;BME280;40775;51.448;4.742;2023-03-21T08:10:59;101252.44;;;15.23;100.00
54882;BME280;40775;51.448;4.742;2023-03-21T08:13:26;101257.72;;;15.23;100.00
54882;BME280;40775;51.448;4.742;2023-03-21T08:15:53;101256.84;;;15.24;100.00
54882;BME280;40775;51.448;4.742;2023-03-21T08:18:20;101253.31;;;15.22;100.00
54882;BME280;40775;51.448;4.742;2023-03-21T08:20:57;101253.31;;;15.22;100.00
54882;BME280;40775;51.448;4.742;2023-03-21T08:23:24;101245.38;;;15.25;100.00
54882;BME280;40775;51.448;4.742;2023-03-21T08:25:53;101241.88;;;15.26;100.00
54882;BME280;40775;51.448;4.742;2023-03-21T08:28:21;101244.53;;;15.29;100.00
54882;BME280;40775;51.448;4.742;2023-03-21T08:30:49;101244.53;;;15.32;100.00
54882;BME280;40775;51.448;4.742;2023-03-21T08:33:17;101245.44;;;15.32;100.00
54882;BME280;40775;51.448;4.742;2023-03-21T08:35:44;101242.78;;;15.29;100.00
54882;BME280;40775;51.448;4.742;2023-03-21T08:38:12;101239.25;;;15.29;100.00
54882;BME280;40775;51.448;4.742;2023-03-21T08:40:39;101233.97;;;15.32;100.00
54882;BME280;40775;51.448;4.742;2023-03-21T08:43:07;101230.44;;;15.30;100.00
54882;BME280;40775;51.448;4.742;2023-03-21T08:45:34;101232.19;;;15.31;100.00
54882;BME280;40775;51.448;4.742;2023-03-21T08:48:01;101233.97;;;15.32;100.00
54882;BME280;40775;51.448;4.742;2023-03-21T08:50:29;101236.59;;;15.32;100.00
54882;BME280;40775;51.448;4.742;2023-03-21T08:52:57;101234.84;;;15.29;100.00
54882;BME280;40775;51.448;4.742;2023-03-21T08:55:24;101234.84;;;15.29;100.00
54882;BME280;40775;51.448;4.742;2023-03-21T08:57:51;101227.78;;;15.28;100.00
54882;BME280;40775;51.448;4.742;2023-03-21T09:00:19;101228.66;;;15.29;100.00
54882;BME280;40775;51.448;4.742;2023-03-21T09:02:48;101230.44;;;15.30;100.00
54882;BME280;40775;51.448;4.742;2023-03-21T09:05:17;101220.72;;;15.30;100.00
54882;BME280;40775;51.448;4.742;2023-03-21T09:07:45;101209.28;;;15.31;100.00
54882;BME280;40775;51.448;4.742;2023-03-21T09:10:16;101210.16;;;15.32;100.00
54882;BME280;40775;51.448;4.742;2023-03-21T09:12:53;101212.81;;;15.32;100.00
54882;BME280;40775;51.448;4.742;2023-03-21T09:15:26;101218.97;;;15.32;100.00
54882;BME280;40775;51.448;4.742;2023-03-21T09:17:55;101205.75;;;15.32;100.00
54882;BME280;40775;51.448;4.742;2023-03-21T09:20:25;101211.91;;;15.31;100.00
54882;BME280;40775;51.448;4.742;2023-03-21T09:22:58;101205.75;;;15.31;100.00
54882;BME280;40775;51.448;4.742;2023-03-21T09:25:27;101205.75;;;15.31;100.00
54882;BME280;40775;51.448;4.742;2023-03-21T09:28:01;101211.03;;;15.31;100.00
54882;BME280;40775;51.448;4.742;2023-03-21T09:30:34;101210.13;;;15.29;100.00
54882;BME280;40775;51.448;4.742;2023-03-21T09:33:04;101208.38;;;15.29;100.00
54882;BME280;40775;51.448;4.742;2023-03-21T09:35:38;101208.38;;;15.28;100.00
54882;BME280;40775;51.448;4.742;2023-03-21T09:38:07;101199.53;;;15.26;100.00
54882;BME280;40775;51.448;4.742;2023-03-21T09:41:08;101198.66;;;15.25;100.00
54882;BME280;40775;51.448;4.742;2023-03-21T09:44:33;101191.59;;;15.26;100.00
54882;BME280;40775;51.448;4.742;2023-03-21T09:47:28;101196.00;;;15.25;100.00
54882;BME280;40775;51.448;4.742;2023-03-21T09:50:12;101198.66;;;15.22;100.00
54882;BME280;40775;51.448;4.742;2023-03-21T09:53:34;101192.47;;;15.20;100.00
54882;BME280;40775;51.448;4.742;2023-03-21T09:56:02;101189.81;;;15.23;100.00
54882;BME280;40775;51.448;4.742;2023-03-21T09:58:33;101200.41;;;15.22;100.00
54882;BME280;40775;51.448;4.742;2023-03-21T10:01:23;101203.06;;;15.23;100.00
54882;BME280;40775;51.448;4.742;2023-03-21T10:04:01;101200.41;;;15.25;100.00
54882;BME280;40775;51.448;4.742;2023-03-21T10:06:29;101204.81;;;15.24;100.00
54882;BME280;40775;51.448;4.742;2023-03-21T10:09:14;101193.38;;;15.25;100.00
54882;BME280;40775;51.448;4.742;2023-03-21T10:11:46;101193.38;;;15.27;100.00
54882;BME280;40775;51.448;4.742;2023-03-21T10:17:24;101185.44;;;15.25;100.00
54882;BME280;40775;51.448;4.742;2023-03-21T10:20:13;101186.31;;;15.24;100.00
54882;BME280;40775;51.448;4.742;2023-03-21T10:22:43;101188.94;;;15.23;100.00
54882;BME280;40775;51.448;4.742;2023-03-21T10:25:20;101194.22;;;15.20;100.00
54882;BME280;40775;51.448;4.742;2023-03-21T10:27:48;101188.03;;;15.18;100.00
54882;BME280;40775;51.448;4.742;2023-03-21T10:33:16;101186.28;;;15.20;100.00
54882;BME280;40775;51.448;4.742;2023-03-21T10:35:52;101174.84;;;15.24;100.00
54882;BME280;40775;51.448;4.742;2023-03-21T10:38:24;101167.78;;;15.24;100.00
54882;BME280;40775;51.448;4.742;2023-03-21T10:40:53;101168.69;;;15.28;100.00
54882;BME280;40775;51.448;4.742;2023-03-21T10:45:54;101168.69;;;15.28;100.00
54882;BME280;40775;51.448;4.742;2023-03-21T10:48:24;101173.97;;;15.25;100.00
54882;BME280;40775;51.448;4.742;2023-03-21T10:50:53;101175.72;;;15.21;100.00
54882;BME280;40775;51.448;4.742;2023-03-21T10:53:26;101175.72;;;15.23;100.00
54882;BME280;40775;51.448;4.742;2023-03-21T10:55:58;101170.44;;;15.26;100.00
54882;BME280;40775;51.448;4.742;2023-03-21T10:58:32;101174.84;;;15.25;100.00
54882;BME280;40775;51.448;4.742;2023-03-21T11:01:04;101170.44;;;15.26;100.00
54882;BME280;40775;51.448;4.742;2023-03-21T11:03:37;101178.38;;;15.26;100.00
54882;BME280;40775;51.448;4.742;2023-03-21T11:06:07;101172.19;;;15.24;100.00
54882;BME280;40775;51.448;4.742;2023-03-21T11:08:49;101173.09;;;15.24;100.00
54882;BME280;40775;51.448;4.742;2023-03-21T11:14:38;101189.81;;;15.23;100.00
54882;BME280;40775;51.448;4.742;2023-03-21T11:20:07;101192.47;;;15.23;100.00
54882;BME280;40775;51.448;4.742;2023-03-21T11:22:40;101188.06;;;15.21;100.00
54882;BME280;40775;51.448;4.742;2023-03-21T11:25:35;101187.16;;;15.20;100.00
54882;BME280;40775;51.448;4.742;2023-03-21T11:28:39;101183.63;;;15.20;100.00
54882;BME280;40775;51.448;4.742;2023-03-21T11:31:08;101182.75;;;15.21;100.00
54882;BME280;40775;51.448;4.742;2023-03-21T11:33:50;101184.53;;;15.22;100.00
54882;BME280;40775;51.448;4.742;2023-03-21T11:41:34;101168.66;;;15.22;100.00
54882;BME280;40775;51.448;4.742;2023-03-21T11:44:05;101173.06;;;15.21;100.00
54882;BME280;40775;51.448;4.742;2023-03-21T11:46:39;101169.53;;;15.22;100.00
54882;BME280;40775;51.448;4.742;2023-03-21T11:49:08;101169.53;;;15.22;100.00
54882;BME280;40775;51.448;4.742;2023-03-21T11:52:09;101161.56;;;15.14;100.00
54882;BME280;40775;51.448;4.742;2023-03-21T12:00:28;101165.13;;;15.20;100.00
54882;BME280;40775;51.448;4.742;2023-03-21T12:06:01;101155.44;;;15.20;100.00
54882;BME280;40775;51.448;4.742;2023-03-21T12:11:44;101143.97;;;15.20;100.00
54882;BME280;40775;51.448;4.742;2023-03-21T12:15:02;101138.69;;;15.23;100.00
54882;BME280;40775;51.448;4.742;2023-03-21T12:41:27;101134.31;;;15.26;100.00
54882;BME280;40775;51.448;4.742;2023-03-21T12:44:18;101121.97;;;15.27;100.00
54882;BME280;40775;51.448;4.742;2023-03-21T12:46:54;101124.63;;;15.30;100.00
54882;BME280;40775;51.448;4.742;2023-03-21T12:52:20;101128.16;;;15.32;100.00
54882;BME280;40775;51.448;4.742;2023-03-21T12:55:25;101114.03;;;15.30;100.00
54882;BME280;40775;51.448;4.742;2023-03-21T12:58:17;101124.63;;;15.31;100.00
54882;BME280;40775;51.448;4.742;2023-03-21T13:00:51;101109.63;;;15.30;100.00
54882;BME280;40775;51.448;4.742;2023-03-21T13:03:36;101095.53;;;15.31;100.00
54882;BME280;40775;51.448;4.742;2023-03-21T13:06:12;101096.41;;;15.33;100.00
54882;BME280;40775;51.448;4.742;2023-03-21T13:09:12;101100.88;;;15.34;100.00
54882;BME280;40775;51.448;4.742;2023-03-21T13:11:35;101099.06;;;15.33;100.00
54882;BME280;40775;51.448;4.742;2023-03-21T13:16:52;101098.22;;;15.37;100.00
54882;BME280;40775;51.448;4.742;2023-03-21T13:19:51;101088.53;;;15.38;100.00
54882;BME280;40775;51.448;4.742;2023-03-21T13:22:25;101083.25;;;15.38;100.00
54882;BME280;40775;51.448;4.742;2023-03-21T13:25:04;101074.41;;;15.37;100.00
54882;BME280;40775;51.448;4.742;2023-03-21T13:27:36;101077.06;;;15.36;100.00
54882;BME280;40775;51.448;4.742;2023-03-21T13:30:28;101070.00;;;15.38;100.00
54882;BME280;40775;51.448;4.742;2023-03-21T13:33:22;101060.31;;;15.40;100.00
54882;BME280;40775;51.448;4.742;2023-03-21T13:35:59;101059.44;;;15.41;100.00
54882;BME280;40775;51.448;4.742;2023-03-21T13:38:33;101077.06;;;15.42;100.00
54882;BME280;40775;51.448;4.742;2023-03-21T14:02:00;101056.81;;;15.47;100.00
54882;BME280;40775;51.448;4.742;2023-03-21T14:04:31;101055.03;;;15.48;100.00
54882;BME280;40775;51.448;4.742;2023-03-21T14:07:31;101049.75;;;15.49;100.00
54882;BME280;40775;51.448;4.742;2023-03-21T14:10:18;101058.56;;;15.50;100.00
54882;BME280;40775;51.448;4.742;2023-03-21T14:12:46;101046.22;;;15.50;100.00
54882;BME280;40775;51.448;4.742;2023-03-21T14:15:23;101050.66;;;15.53;100.00
54882;BME280;40775;51.448;4.742;2023-03-21T14:17:56;101057.69;;;15.52;100.00
54882;BME280;40775;51.448;4.742;2023-03-21T14:20:32;101055.06;;;15.52;100.00
54882;BME280;40775;51.448;4.742;2023-03-21T14:22:59;101054.19;;;15.53;100.00
54882;BME280;40775;51.448;4.742;2023-03-21T14:25:33;101048.88;;;15.53;100.00
54882;BME280;40775;51.448;4.742;2023-03-21T14:28:25;101049.78;;;15.54;100.00
54882;BME280;40775;51.448;4.742;2023-03-21T14:31:00;101055.94;;;15.54;100.00
54882;BME280;40775;51.448;4.742;2023-03-21T14:33:39;101049.78;;;15.54;100.00
54882;BME280;40775;51.448;4.742;2023-03-21T14:36:17;101050.66;;;15.54;100.00
54882;BME280;40775;51.448;4.742;2023-03-21T14:39:06;101048.88;;;15.53;100.00
54882;BME280;40775;51.448;4.742;2023-03-21T14:41:43;101054.19;;;15.53;100.00
54882;BME280;40775;51.448;4.742;2023-03-21T14:47:22;101052.41;;;15.55;100.00
54882;BME280;40775;51.448;4.742;2023-03-21T14:49:50;101055.94;;;15.57;100.00
54882;BME280;40775;51.448;4.742;2023-03-21T14:52:31;101046.25;;;15.56;100.00
54882;BME280;40775;51.448;4.742;2023-03-21T14:55:04;101051.53;;;15.58;100.00
54882;BME280;40775;51.448;4.742;2023-03-21T14:57:37;101047.13;;;15.57;100.00
54882;BME280;40775;51.448;4.742;2023-03-21T15:00:07;101039.19;;;15.57;100.00
54882;BME280;40775;51.448;4.742;2023-03-21T15:02:40;101048.91;;;15.58;100.00
54882;BME280;40775;51.448;4.742;2023-03-21T15:05:33;101044.47;;;15.57;100.00
54882;BME280;40775;51.448;4.742;2023-03-21T15:08:16;101041.88;;;15.58;100.00
54882;BME280;40775;51.448;4.742;2023-03-21T15:11:14;101039.22;;;15.58;100.00
54882;BME280;40775;51.448;4.742;2023-03-21T15:13:52;101038.34;;;15.59;100.00